Flight Track Log - Related Links

Times and Time Zones

All times are in EDT time to prevent confusion due to time zone crossing. See the AAL832 flight status page for this flight to view local times or setup timezone preferences in your user account.

Time Position Orientation Groundspeed Altitude Reporting Facility
EDT Latitude Longitude Course Direction KTS MPH feet Rate Location/Type
Sun 05:34:44 PM 41.9500 -87.9000 159° South 164 189 1,700  Level Chicago TRACON
Sun 05:35:45 PM 41.8833 -87.9000 180° South 235 270 3,200 1,912 Climbing Chicago TRACON
Sun 05:36:37 PM 41.8347 -87.8622 150° Southeast 255 293 5,300 2,684 Climbing Chicago Center
Sun 05:37:00 PM 41.6584 -87.7179 155° Southeast  Level Estimated
Sun 05:37:39 PM 41.7611 -87.8097 152° Southeast 290 334 8,300  Level Chicago Center
Sun 05:38:00 PM 41.5506 -87.6555 156° South  Level Estimated
Sun 05:38:41 PM 41.6844 -87.7561 152° Southeast 309 356 11,300  Level Chicago Center
Sun 05:39:00 PM 41.4427 -87.5932 159° South  Level Estimated
Sun 05:39:43 PM 41.5842 -87.6858 152° Southeast 337 388 13,500  Level Chicago Center
Sun 05:40:45 PM 41.4853 -87.6144 152° Southeast 395 455 15,800 2,208 Climbing Chicago Center
Sun 05:41:48 PM 41.3767 -87.5622 160° South 414 476 18,100 2,160 Climbing Chicago Center
Sun 05:42:50 PM 41.2594 -87.5439 173° South 420 483 20,300 2,129 Climbing Chicago Center
Sun 05:43:52 PM 41.1414 -87.5175 170° South 428 493 22,500 1,984 Climbing Chicago Center
Sun 05:44:54 PM 41.0197 -87.4847 169° South 443 510 24,400 1,887 Climbing Chicago Center
Sun 05:45:56 PM 40.8714 -87.4436 168° South 452 520 26,400 1,694 Climbing Chicago Center
Sun 05:46:58 PM 40.7436 -87.4117 169° South 466 536 27,900 1,403 Climbing Chicago Center
Sun 05:48:00 PM 40.6156 -87.3783 169° South 468 539 29,300 1,548 Climbing Chicago Center
Sun 05:49:02 PM 40.4892 -87.3447 169° South 467 537 31,100 1,694 Climbing Chicago Center
Sun 05:50:04 PM 40.3539 -87.2892 163° South 464 534 32,800 919 Climbing Chicago Center
Sun 05:51:06 PM 40.2322 -87.2325 160° South 467 537 33,000 97 Climbing Chicago Center
Sun 05:52:08 PM 40.1125 -87.1725 159° South 464 534 33,000  Level Chicago Center
Sun 05:52:47 PM 40.0369 -87.1403 162° South 468 539 33,000 653 Level Indianapolis Center
Sun 05:53:49 PM 39.8992 -87.0425 151° Southeast 474 545 34,100 919 Climbing Indianapolis Center
Sun 05:54:51 PM 39.7869 -86.9483 147° Southeast 481 554 34,900 435 Climbing Indianapolis Center
Sun 05:55:53 PM 39.6739 -86.8556 148° Southeast 485 558 35,000 244 Climbing Indianapolis Center
Sun 05:56:54 PM 39.5644 -86.7639 147° Southeast 475 547 35,400 585 Climbing Indianapolis Center
Sun 05:57:56 PM 39.4558 -86.6747 148° Southeast 469 540 36,200 774 Climbing Indianapolis Center
Sun 05:58:58 PM 39.3472 -86.5839 147° Southeast 469 540 37,000 390 Climbing Indianapolis Center
Sun 05:59:59 PM 39.2161 -86.4764 148° Southeast 469 540 37,000  Level Indianapolis Center
Sun 06:01:01 PM 39.1069 -86.3856 147° Southeast 471 542 37,000  Level Indianapolis Center
Sun 06:03:05 PM 38.8847 -86.2047 148° Southeast 468 539 37,000  Level Indianapolis Center
Sun 06:04:06 PM 38.7692 -86.1308 153° Southeast 461 531 37,000  Level Indianapolis Center
Sun 06:05:08 PM 38.6475 -86.0822 163° South 454 522 37,000  Level Indianapolis Center
Sun 06:06:10 PM 38.5267 -86.0358 163° South 449 517 37,000  Level Indianapolis Center
Sun 06:07:11 PM 38.4053 -85.9872 163° South 452 520 37,000  Level Indianapolis Center
Sun 06:08:13 PM 38.2853 -85.9394 163° South 449 517 37,000  Level Indianapolis Center
Sun 06:09:15 PM 38.1411 -85.8833 163° South 448 516 37,000  Level Indianapolis Center
Sun 06:10:17 PM 38.0172 -85.8356 163° South 457 526 37,000  Level Indianapolis Center
Sun 06:11:18 PM 37.8944 -85.7878 163° South 458 527 37,000  Level Indianapolis Center
Sun 06:12:20 PM 37.7700 -85.7400 163° South 462 532 37,000  Level Indianapolis Center
Sun 06:13:22 PM 37.6469 -85.6919 163° South 461 531 37,000  Level Indianapolis Center
Sun 06:14:24 PM 37.5228 -85.6444 163° South 463 533 37,000  Level Indianapolis Center
Sun 06:15:26 PM 37.3981 -85.5956 163° South 464 534 37,000  Level Indianapolis Center
Sun 06:16:27 PM 37.2608 -85.5433 163° South 465 535 37,000  Level Indianapolis Center
Sun 06:17:29 PM 37.1314 -85.4950 163° South 462 532 37,000  Level Indianapolis Center
Sun 06:18:31 PM 37.0061 -85.4469 163° South 466 536 37,000  Level Indianapolis Center
Sun 06:19:32 PM 36.8817 -85.3994 163° South 466 536 37,000  Level Indianapolis Center
Sun 06:20:34 PM 36.7600 -85.3539 163° South 460 529 37,000  Level Indianapolis Center
Sun 06:21:36 PM 36.6369 -85.3078 163° South 460 529 37,000  Level Indianapolis Center
Sun 06:22:38 PM 36.5156 -85.2617 163° South 457 526 37,000  Level Indianapolis Center
Sun 06:23:39 PM 36.3700 -85.2081 163° South 454 522 37,000  Level Indianapolis Center
Sun 06:24:41 PM 36.2494 -85.1628 163° South 453 521 37,000  Level Indianapolis Center
Sun 06:25:43 PM 36.1283 -85.1178 163° South 455 524 37,000  Level Indianapolis Center
Sun 06:26:45 PM 36.0097 -85.0744 164° South 449 517 37,000  Level Indianapolis Center
Sun 06:27:46 PM 35.8792 -85.0267 163° South 478 550 37,000  Level Indianapolis Center
Sun 06:28:20 PM 35.8189 -85.0042 163° South 461 531 37,000  Level Atlanta Center
Sun 06:29:20 PM 35.6961 -84.9644 165° South 461 531 37,000  Level Atlanta Center
Sun 06:30:20 PM 35.5817 -84.9197 162° South 450 518 37,000  Level Atlanta Center
Sun 06:31:20 PM 35.4567 -84.8878 168° South 445 512 37,000  Level Atlanta Center
Sun 06:32:20 PM 35.3381 -84.8586 169° South 450 518 37,000  Level Atlanta Center
Sun 06:33:20 PM 35.2150 -84.8269 168° South 450 518 37,000  Level Atlanta Center
Sun 06:34:20 PM 35.0942 -84.7978 169° South 450 518 37,000  Level Atlanta Center
Sun 06:35:20 PM 34.9733 -84.7689 169° South 450 518 37,000  Level Atlanta Center
Sun 06:36:20 PM 34.8525 -84.7372 168° South 450 518 37,000  Level Atlanta Center
Sun 06:37:20 PM 34.7294 -84.7061 168° South 450 518 37,000  Level Atlanta Center
Sun 06:38:20 PM 34.6108 -84.6747 168° South 441 507 37,000  Level Atlanta Center
Sun 06:39:20 PM 34.4856 -84.6461 169° South 447 514 37,000  Level Atlanta Center
Sun 06:40:20 PM 34.3628 -84.6150 168° South 453 521 37,000  Level Atlanta Center
Sun 06:41:20 PM 34.2397 -84.5842 168° South 453 521 37,000  Level Atlanta Center
Sun 06:42:20 PM 34.1106 -84.5531 169° South 453 521 37,000  Level Atlanta Center
Sun 06:43:20 PM 33.9833 -84.5222 169° South 465 535 37,000  Level Atlanta Center
Sun 06:44:20 PM 33.8539 -84.4942 170° South 472 543 37,000  Level Atlanta Center
Sun 06:45:20 PM 33.7331 -84.4633 168° South 472 543 37,000  Level Atlanta Center
Sun 06:46:20 PM 33.6078 -84.4328 169° South 465 535 37,000  Level Atlanta Center
Sun 06:47:20 PM 33.4828 -84.3775 160° South 471 542 37,000  Level Atlanta Center
Sun 06:48:20 PM 33.3619 -84.3272 161° South 471 542 37,000  Level Atlanta Center
Sun 06:49:20 PM 33.2367 -84.2772 162° South 466 536 37,000  Level Atlanta Center
Sun 06:50:20 PM 33.1178 -84.2272 161° South 457 526 37,000  Level Atlanta Center
Sun 06:51:20 PM 32.9989 -84.1750 160° South 457 526 37,000  Level Atlanta Center
Sun 06:52:20 PM 32.8778 -84.1278 162° South 457 526 37,000  Level Atlanta Center
Sun 06:53:20 PM 32.7589 -84.0758 160° South 457 526 37,000  Level Atlanta Center
Sun 06:54:20 PM 32.6378 -84.0242 160° South 462 532 37,000  Level Atlanta Center
Sun 06:55:20 PM 32.5147 -83.9772 162° South 462 532 37,000  Level Atlanta Center
Sun 06:56:20 PM 32.3956 -83.9258 160° South 462 532 37,000  Level Atlanta Center
Sun 06:57:20 PM 32.2744 -83.8767 161° South 462 532 37,000  Level Atlanta Center
Sun 06:58:20 PM 32.1533 -83.8278 161° South 462 532 37,000  Level Atlanta Center
Sun 06:58:44 PM 32.1047 -83.8075 161° South 460 529 37,000  Level Jacksonville Center
Sun 06:59:44 PM 31.9861 -83.7597 161° South 460 529 37,000  Level Jacksonville Center
Sun 07:00:44 PM 31.8550 -83.7047 160° South 460 529 37,000  Level Jacksonville Center
Sun 07:01:44 PM 31.7319 -83.6547 161° South 460 529 37,000  Level Jacksonville Center
Sun 07:02:44 PM 31.6050 -83.6047 161° South 460 529 37,000  Level Jacksonville Center
Sun 07:03:44 PM 31.4819 -83.5578 162° South 469 540 37,000  Level Jacksonville Center
Sun 07:04:44 PM 31.3633 -83.5106 161° South 469 540 37,000  Level Jacksonville Center
Sun 07:05:44 PM 31.2403 -83.4683 164° South 462 532 37,000  Level Jacksonville Center
Sun 07:06:44 PM 31.1150 -83.4411 169° South 462 532 37,000  Level Jacksonville Center
Sun 07:07:44 PM 30.9900 -83.4111 168° South 462 532 37,000  Level Jacksonville Center
Sun 07:08:44 PM 30.8647 -83.3814 168° South 462 532 37,000 -50 Level Jacksonville Center
Sun 07:09:44 PM 30.7439 -83.3542 169° South 462 532 36,900 -50 Descending Jacksonville Center
Sun 07:10:44 PM 30.6208 -83.3272 169° South 462 532 36,900 50 Level Jacksonville Center
Sun 07:11:44 PM 30.4956 -83.2975 168° South 462 532 37,000  Climbing Jacksonville Center
Sun 07:12:44 PM 30.3744 -83.2731 170° South 456 525 36,900  Descending Jacksonville Center
Sun 07:13:44 PM 30.2536 -83.2461 169° South 450 518 37,000 50 Climbing Jacksonville Center
Sun 07:14:44 PM 30.1303 -83.2192 169° South 450 518 37,000 -50 Level Jacksonville Center
Sun 07:15:44 PM 30.0053 -83.1900 169° South 450 518 36,900 -50 Descending Jacksonville Center
Sun 07:16:44 PM 29.8819 -83.1656 170° South 456 525 36,900  Level Jacksonville Center
Sun 07:17:44 PM 29.7569 -83.1367 169° South 452 520 36,900 50 Level Jacksonville Center
Sun 07:18:44 PM 29.6400 -83.1100 169° South 466 536 37,000 50 Climbing Jacksonville Center
Sun 07:19:44 PM 29.5169 -83.0858 170° South 447 514 37,000  Level Jacksonville Center
Sun 07:20:44 PM 29.4000 -83.0569 168° South 456 525 37,000  Level Jacksonville Center
Sun 07:21:44 PM 29.2789 -83.0306 169° South 456 525 37,000 -50 Level Jacksonville Center
Sun 07:22:44 PM 29.1600 -83.0044 169° South 451 519 36,900  Descending Jacksonville Center
Sun 07:23:44 PM 29.0369 -82.9781 169° South 451 519 37,000  Climbing Jacksonville Center
Sun 07:24:44 PM 28.9158 -82.9494 168° South 451 519 36,900  Descending Jacksonville Center
Sun 07:25:44 PM 28.7928 -82.9233 169° South 451 519 37,000 50 Climbing Jacksonville Center
Sun 07:26:44 PM 28.6611 -82.8972 170° South 446 513 37,000  Level Jacksonville Center
Sun 07:27:44 PM 28.5361 -82.8714 170° South 446 513 37,000  Level Jacksonville Center
Sun 07:29:29 PM 28.3331 -82.8275 169° South 440 506 37,000  Level Miami Center
Sun 07:30:29 PM 28.2131 -82.8000 169° South 445 512 37,000 -50 Level Miami Center
Sun 07:31:29 PM 28.0933 -82.7725 169° South 445 512 36,900  Descending Miami Center
Sun 07:32:29 PM 27.9797 -82.7456 168° South 445 512 37,000  Climbing Miami Center
Sun 07:33:29 PM 27.8542 -82.7061 164° South 450 518 36,900  Descending Miami Center
Sun 07:34:29 PM 27.7244 -82.6597 162° South 441 507 37,000 50 Climbing Miami Center
Sun 07:35:29 PM 27.6197 -82.6192 161° South 441 507 37,000  Level Miami Center
Sun 07:36:29 PM 27.4903 -82.5706 162° South 441 507 37,000  Level Miami Center
Sun 07:37:29 PM 27.3750 -82.5275 162° South 436 502 37,000  Level Miami Center
Sun 07:38:29 PM 27.2600 -82.4844 162° South 429 494 37,000 -50 Level Miami Center
Sun 07:39:29 PM 27.1592 -82.4469 162° South 429 494 36,900 -50 Descending Miami Center
Sun 07:40:29 PM 27.0439 -82.4042 162° South 435 501 36,900 -500 Level Miami Center
Sun 07:41:29 PM 26.9236 -82.3308 151° Southeast 442 509 35,900 -1,400 Descending Miami Center
Sun 07:42:29 PM 26.8158 -82.2514 147° Southeast 442 509 34,100 -1,800 Descending Miami Center
Sun 07:43:29 PM 26.7081 -82.1767 148° Southeast 456 525 32,300 -1,950 Descending Miami Center
Sun 07:44:29 PM 26.5942 -82.0950 147° Southeast 472 543 30,200 -2,150 Descending Miami Center
Sun 07:45:29 PM 26.4822 -82.0156 148° Southeast 477 549 28,000 -2,200 Descending Miami Center
Sun 07:46:29 PM 26.3722 -81.9367 147° Southeast 477 549 25,800 -2,100 Descending Miami Center
Sun 07:47:29 PM 26.2808 -81.8656 145° Southeast 472 543 23,800 -2,000 Descending Miami Center
Sun 07:48:29 PM 26.1808 -81.7944 147° Southeast 445 512 21,800 -1,950 Descending Miami Center
Sun 07:49:29 PM 26.1111 -81.6944 128° Southeast 413 475 19,900 -1,750 Descending Miami Center
Sun 07:50:29 PM 26.0392 -81.5944 129° Southeast 408 470 18,300 -1,550 Descending Miami Center
Sun 07:51:29 PM 25.9756 -81.4947 125° Southeast 408 470 16,800 -1,450 Descending Miami Center
Sun 07:52:29 PM 25.9350 -81.3917 114° Southeast 387 445 15,400 -1,350 Descending Miami Center
Sun 07:53:29 PM 25.8942 -81.2956 115° Southeast 365 420 14,100 -1,450 Descending Miami Center
Sun 07:54:29 PM 25.8847 -81.1867 95° East 343 395 12,500 -1,590 Descending Miami Center
Sun 07:54:52 PM 25.8839 -81.1428 91° East 341 392 11,900 -1,500 Descending Miami Center
Sun 07:55:29 PM 25.8900 -81.0828 84° East 338 389 11,000 -1,522 Descending Miami Center
Sun 07:55:59 PM 25.8875 -81.0228 93° East 332 382 10,200 -1,100 Descending Miami Center
Sun 07:56:29 PM 25.8886 -80.9836 88° East 324 373 9,900 -400 Descending Miami Center
Sun 07:56:59 PM 25.8839 -80.9303 96° East 291 335 9,800 -700 Descending Miami Center
Sun 07:57:29 PM 25.8872 -80.8842 85° East 309 356 9,200 -1,151 Descending Miami Center
Sun 07:58:12 PM 25.8803 -80.8239 97° East 277 319 8,400 -1,100 Descending Miami Center
Sun 07:58:29 PM 25.8853 -80.8011 76° East 285 328 8,100 -1,377 Descending Miami Center
Sun 07:59:13 PM 25.8783 -80.7431 98° East 269 310 7,000 -1,400 Descending Miami Center
Sun 07:59:29 PM 25.8811 -80.7156 84° East 272 313 6,700 -1,082 Descending Miami Center
Sun 08:00:14 PM 25.8786 -80.6600 93° East 264 304 5,900 -1,000 Descending Miami Center
Sun 08:00:29 PM 25.8789 -80.6392 89° East 267 307 5,700 -1,102 Descending Miami Center
Sun 08:01:03 PM 25.8739 -80.5975 98° East 232 267 5,000 -900 Descending Miami Center
Sun 08:01:29 PM 25.8789 -80.5631 81° East 248 285 4,800 -835 Descending Miami Center
Sun 08:02:22 PM 25.8722 -80.5006 97° East 237 273 3,900 -1,019 Descending Miami Center

Login

Don't have an account? Register now (free) for customized features, flight alerts, and more!